VIR612 EGLL-KATL
Flight info
| Callsign | VIR612 |
|---|---|
| Flight time | N/A |
| Altitude | 34000 |
| Route | ULTIB T420 TNT UL28 PENIL M144 BAGSO DCT RINUS DCT MALOT/M083F340 NATE RIKAL/N0478F340 N572A TOPPS DCT ENE DCT BAF Q448 PTW J48 MOL DCT FLASK OZZZI2 |
| Aircraft | A346/H-SDE2E3FGHIJ3J4J5M1RWXY/LB1D1 |
Departure
| Time | 2026-05-05 12:36 |
|---|---|
| Airport | London Heathrow Airport (EGLL) |
Arrival
| Time | N/A |
|---|---|
| Airport | Hartsfield Jackson Atlanta International Airport (KATL) |
| Time | Latitude | Longitude | Altitude | Speed | Heading |
|---|---|---|---|---|---|
| 2026-05-05 12:04 | 51.47396 | -0.46603 | 94 ft | 0 kts | 120° |
| 2026-05-05 12:22 | 51.47397 | -0.46605 | 94 ft | 2 kts | 120° |
| 2026-05-05 12:22 | 51.47409 | -0.46640 | 96 ft | 4 kts | 120° |
| 2026-05-05 12:22 | 51.47423 | -0.46677 | 97 ft | 4 kts | 120° |
| 2026-05-05 12:23 | 51.47434 | -0.46706 | 96 ft | 4 kts | 127° |
| 2026-05-05 12:23 | 51.47452 | -0.46736 | 95 ft | 4 kts | 143° |
| 2026-05-05 12:23 | 51.47474 | -0.46758 | 95 ft | 4 kts | 156° |
| 2026-05-05 12:23 | 51.47499 | -0.46772 | 95 ft | 4 kts | 165° |
| 2026-05-05 12:24 | 51.47508 | -0.46776 | 95 ft | 0 kts | 166° |
| 2026-05-05 12:26 | 51.47507 | -0.46775 | 95 ft | 1 kts | 166° |
| 2026-05-05 12:26 | 51.47494 | -0.46770 | 94 ft | 3 kts | 166° |
| 2026-05-05 12:26 | 51.47451 | -0.46753 | 95 ft | 11 kts | 166° |
| 2026-05-05 12:27 | 51.47357 | -0.46726 | 94 ft | 16 kts | 176° |
| 2026-05-05 12:27 | 51.47262 | -0.46734 | 95 ft | 11 kts | 205° |
| 2026-05-05 12:27 | 51.47221 | -0.46834 | 98 ft | 11 kts | 223° |
| 2026-05-05 12:27 | 51.47139 | -0.46863 | 94 ft | 13 kts | 181° |
| 2026-05-05 12:28 | 51.47048 | -0.46864 | 94 ft | 12 kts | 179° |
| 2026-05-05 12:28 | 51.46964 | -0.46863 | 94 ft | 12 kts | 179° |
| 2026-05-05 12:28 | 51.46870 | -0.46863 | 97 ft | 14 kts | 180° |
| 2026-05-05 12:28 | 51.46850 | -0.46863 | 97 ft | 1 kts | 180° |
| 2026-05-05 12:29 | 51.46848 | -0.46863 | 97 ft | 1 kts | 180° |
| 2026-05-05 12:29 | 51.46810 | -0.46863 | 97 ft | 10 kts | 180° |
| 2026-05-05 12:29 | 51.46757 | -0.46905 | 98 ft | 9 kts | 247° |
| 2026-05-05 12:29 | 51.46747 | -0.47026 | 98 ft | 16 kts | 269° |
| 2026-05-05 12:30 | 51.46747 | -0.47243 | 98 ft | 21 kts | 270° |
| 2026-05-05 12:30 | 51.46745 | -0.47487 | 96 ft | 22 kts | 269° |
| 2026-05-05 12:30 | 51.46745 | -0.47705 | 94 ft | 17 kts | 270° |
| 2026-05-05 12:30 | 51.46744 | -0.47894 | 94 ft | 17 kts | 270° |
| 2026-05-05 12:31 | 51.46743 | -0.48057 | 94 ft | 0 kts | 270° |
| 2026-05-05 12:31 | 51.46743 | -0.48060 | 94 ft | 1 kts | 270° |
| 2026-05-05 12:31 | 51.46743 | -0.48110 | 94 ft | 9 kts | 270° |
| 2026-05-05 12:31 | 51.46743 | -0.48251 | 94 ft | 16 kts | 270° |
| 2026-05-05 12:32 | 51.46742 | -0.48460 | 94 ft | 20 kts | 270° |
| 2026-05-05 12:32 | 51.46742 | -0.48648 | 94 ft | 14 kts | 270° |
| 2026-05-05 12:32 | 51.46691 | -0.48742 | 99 ft | 13 kts | 187° |
| 2026-05-05 12:32 | 51.46599 | -0.48768 | 96 ft | 14 kts | 194° |
| 2026-05-05 12:33 | 51.46511 | -0.48760 | 98 ft | 11 kts | 144° |
| 2026-05-05 12:33 | 51.46480 | -0.48680 | 98 ft | 8 kts | 102° |
| 2026-05-05 12:33 | 51.46479 | -0.48664 | 97 ft | 0 kts | 88° |
| 2026-05-05 12:34 | 51.46479 | -0.48662 | 97 ft | 1 kts | 88° |
| 2026-05-05 12:34 | 51.46481 | -0.48506 | 94 ft | 38 kts | 89° |
| 2026-05-05 12:35 | 51.46484 | -0.47775 | 97 ft | 92 kts | 89° |
| 2026-05-05 12:35 | 51.46488 | -0.46480 | 97 ft | 138 kts | 90° |
| 2026-05-05 12:35 | 51.46491 | -0.44718 | 100 ft | 176 kts | 90° |
| 2026-05-05 12:35 | 51.46499 | -0.42680 | 396 ft | 184 kts | 86° |
| 2026-05-05 12:36 | 51.46735 | -0.40689 | 839 ft | 181 kts | 62° |
| 2026-05-05 12:36 | 51.47424 | -0.39005 | 1335 ft | 183 kts | 50° |
| 2026-05-05 12:36 | 51.48270 | -0.37377 | 1608 ft | 198 kts | 48° |
| 2026-05-05 12:36 | 51.49223 | -0.35654 | 1876 ft | 214 kts | 46° |
| 2026-05-05 12:37 | 51.50289 | -0.33868 | 2144 ft | 230 kts | 45° |
| 2026-05-05 12:37 | 51.51418 | -0.31924 | 2463 ft | 245 kts | 47° |
| 2026-05-05 12:37 | 51.52467 | -0.29701 | 2966 ft | 254 kts | 63° |
| 2026-05-05 12:37 | 51.53092 | -0.27042 | 3647 ft | 256 kts | 71° |
| 2026-05-05 12:38 | 51.53615 | -0.24286 | 4307 ft | 259 kts | 71° |
| 2026-05-05 12:38 | 51.54154 | -0.21517 | 4948 ft | 263 kts | 69° |
| 2026-05-05 12:38 | 51.55081 | -0.19011 | 5558 ft | 263 kts | 39° |
| 2026-05-05 12:38 | 51.56671 | -0.17621 | 6208 ft | 264 kts | 11° |
| 2026-05-05 12:39 | 51.58512 | -0.17667 | 6819 ft | 268 kts | 341° |
| 2026-05-05 12:39 | 51.60115 | -0.19174 | 7453 ft | 271 kts | 313° |
| 2026-05-05 12:39 | 51.61281 | -0.21566 | 8159 ft | 273 kts | 309° |
| 2026-05-05 12:39 | 51.62569 | -0.23844 | 8826 ft | 277 kts | 318° |
| 2026-05-05 12:40 | 51.64080 | -0.25808 | 9482 ft | 281 kts | 324° |
| 2026-05-05 12:40 | 51.65721 | -0.27581 | 10096 ft | 286 kts | 327° |
| 2026-05-05 12:40 | 51.67458 | -0.29311 | 10565 ft | 297 kts | 329° |
| 2026-05-05 12:40 | 51.69274 | -0.31073 | 10846 ft | 313 kts | 329° |
| 2026-05-05 12:41 | 51.71188 | -0.32917 | 11147 ft | 329 kts | 329° |
| 2026-05-05 12:41 | 51.73203 | -0.34857 | 11433 ft | 344 kts | 329° |
| 2026-05-05 12:41 | 51.75297 | -0.36877 | 11715 ft | 360 kts | 329° |
| 2026-05-05 12:41 | 51.77529 | -0.39034 | 12005 ft | 375 kts | 329° |
| 2026-05-05 12:42 | 51.79794 | -0.41228 | 12474 ft | 382 kts | 329° |
| 2026-05-05 12:42 | 51.82084 | -0.43445 | 13177 ft | 385 kts | 329° |
| 2026-05-05 12:42 | 51.84389 | -0.45679 | 13870 ft | 387 kts | 329° |
| 2026-05-05 12:42 | 51.86709 | -0.47933 | 14452 ft | 391 kts | 329° |
| 2026-05-05 12:43 | 51.89054 | -0.50213 | 15028 ft | 395 kts | 329° |
| 2026-05-05 12:43 | 51.91422 | -0.52520 | 15593 ft | 399 kts | 328° |
| 2026-05-05 12:43 | 51.93808 | -0.54847 | 16162 ft | 402 kts | 328° |
| 2026-05-05 12:43 | 51.96215 | -0.57197 | 16735 ft | 406 kts | 328° |
| 2026-05-05 12:44 | 51.98647 | -0.59574 | 17309 ft | 409 kts | 328° |
| 2026-05-05 12:44 | 52.01087 | -0.61960 | 17871 ft | 413 kts | 328° |
| 2026-05-05 12:44 | 52.03562 | -0.64388 | 18389 ft | 417 kts | 328° |
| 2026-05-05 12:44 | 52.06055 | -0.66830 | 18881 ft | 420 kts | 328° |
| 2026-05-05 12:45 | 52.08562 | -0.69293 | 19396 ft | 422 kts | 327° |
| 2026-05-05 12:45 | 52.11048 | -0.71739 | 19888 ft | 425 kts | 327° |
| 2026-05-05 12:45 | 52.13624 | -0.74278 | 20362 ft | 428 kts | 327° |
| 2026-05-05 12:45 | 52.16180 | -0.76799 | 20866 ft | 431 kts | 327° |
| 2026-05-05 12:46 | 52.18720 | -0.79308 | 21328 ft | 434 kts | 327° |
| 2026-05-05 12:46 | 52.21314 | -0.81874 | 21795 ft | 437 kts | 327° |
| 2026-05-05 12:46 | 52.23928 | -0.84464 | 22269 ft | 440 kts | 327° |
| 2026-05-05 12:46 | 52.26550 | -0.87066 | 22731 ft | 443 kts | 327° |
| 2026-05-05 12:47 | 52.29196 | -0.89696 | 23186 ft | 447 kts | 326° |
| 2026-05-05 12:47 | 52.31861 | -0.92346 | 23623 ft | 450 kts | 326° |
| 2026-05-05 12:47 | 52.34545 | -0.95022 | 23980 ft | 453 kts | 326° |
| 2026-05-05 12:47 | 52.37243 | -0.97715 | 24364 ft | 456 kts | 326° |
| 2026-05-05 12:48 | 52.39954 | -1.00426 | 24732 ft | 458 kts | 326° |
| 2026-05-05 12:48 | 52.42684 | -1.03160 | 25119 ft | 461 kts | 326° |
| 2026-05-05 12:48 | 52.45430 | -1.05910 | 25490 ft | 464 kts | 326° |
| 2026-05-05 12:48 | 52.48188 | -1.08675 | 25865 ft | 466 kts | 326° |
| 2026-05-05 12:49 | 52.50964 | -1.11463 | 26233 ft | 469 kts | 326° |
| 2026-05-05 12:49 | 52.53751 | -1.14270 | 26603 ft | 471 kts | 327° |
| 2026-05-05 12:49 | 52.56549 | -1.17091 | 27002 ft | 472 kts | 327° |
| 2026-05-05 12:49 | 52.59358 | -1.19925 | 27387 ft | 474 kts | 327° |
| 2026-05-05 12:50 | 52.62178 | -1.22772 | 27725 ft | 477 kts | 327° |
| 2026-05-05 12:50 | 52.65012 | -1.25639 | 28071 ft | 479 kts | 327° |
| 2026-05-05 12:50 | 52.67856 | -1.28520 | 28478 ft | 480 kts | 327° |
| 2026-05-05 12:50 | 52.70693 | -1.31400 | 28994 ft | 478 kts | 326° |
| 2026-05-05 12:51 | 52.73525 | -1.34283 | 29494 ft | 476 kts | 326° |
| 2026-05-05 12:51 | 52.76337 | -1.37151 | 30011 ft | 475 kts | 327° |